Harbert, MI (49115)

10:49 AM EDT on August 26, 2016 (GMT -0400)
Sawyer, MI | | Change Station

Elev 653 ft 41.87 °N, 86.58 °W | Updated 2 seconds ago

Clear
Clear
78.6 °F
Feels Like 81 °F
N
1.3
Wind Variable Wind from West
Gusts 2.5 mph

Today
High -- | Low -- °F
--% Chance of Precip.
Yesterday
High -- | Low -- °F
Precip. -- in
Pressure 30.18 in
Visibility 10.0 miles
Clouds Clear
Heat Index 81 °F
Dew Point 66 °F
Humidity 65%
Rainfall 0.00 in
Snow Depth Not available.
7:06 AM 8:28 PM
Waning Crescent, 34% visible
METAR KMGC 261435Z AUTO 00000KT 10SM CLR 23/23 A3018 RMK AO2
Pressure 30.18 in
Visibility 10.0 miles
Clouds Clear
Heat Index 81 °F
Dew Point 66 °F
Humidity 65%
Rainfall 0.00 in
Snow Depth Not available.
7:06 AM 8:28 PM
Waning Crescent, 34% visible
METAR KMGC 261435Z AUTO 00000KT 10SM CLR 23/23 A3018 RMK AO2

10-Day Weather Forecast

Almanac

Astronomy

Aug. 26, 2016 Rise Set
Actual Time
Civil Twilight
Nautical Twilight
Astronomical Twilight
Moon
Length of Visible Light
Length of Day
Tomorrow will be .
, % of the Moon is Illuminated

Today's Extremes

State Highs State Lows

Community

WunderPhotos

Upload Photos

1,935,090 photos uploaded!

WunderBlog® & News

Nearby

Air Quality

  Air Quality AQ Index Pollutant
Not available.

Snow Depth

Station Depth Elevation

Earthquake Activity

City Distance Mag. Time & Date
Minimum magnitude displayed is 2.5.

Coastal Water Temperatures

Place Temperature

Stations

Nearby Weather Stations

Station Location Temp. Windchill Dew Point Humidity Wind Precip. Elev Updated Type
                   

Watches & Warnings

There are currently no watches in effect.